sensor_id;sensor_type;location;lat;lon;timestamp;P1;P2;P0
50321;PMS5003;36227;53.366;-1.426;2023-05-10T00:01:50;8;8;
50321;PMS5003;36227;53.366;-1.426;2023-05-10T00:04:15;8;8;
50321;PMS5003;36227;53.366;-1.426;2023-05-10T00:06:40;8;8;
50321;PMS5003;36227;53.366;-1.426;2023-05-10T00:09:06;6;6;
50321;PMS5003;36227;53.366;-1.426;2023-05-10T00:11:31;7;7;
50321;PMS5003;36227;53.366;-1.426;2023-05-10T00:13:56;6;6;
50321;PMS5003;36227;53.366;-1.426;2023-05-10T00:16:22;11;6;
50321;PMS5003;36227;53.366;-1.426;2023-05-10T00:18:47;7;5;
50321;PMS5003;36227;53.366;-1.426;2023-05-10T00:21:12;5;5;
50321;PMS5003;36227;53.366;-1.426;2023-05-10T00:23:37;6;6;
50321;PMS5003;36227;53.366;-1.426;2023-05-10T00:26:03;6;5;
50321;PMS5003;36227;53.366;-1.426;2023-05-10T00:28:29;6;5;
50321;PMS5003;36227;53.366;-1.426;2023-05-10T00:30:54;6;6;
50321;PMS5003;36227;53.366;-1.426;2023-05-10T00:33:19;5;5;
50321;PMS5003;36227;53.366;-1.426;2023-05-10T00:35:44;4;4;
50321;PMS5003;36227;53.366;-1.426;2023-05-10T00:38:10;4;4;
50321;PMS5003;36227;53.366;-1.426;2023-05-10T00:40:35;5;5;
50321;PMS5003;36227;53.366;-1.426;2023-05-10T00:43:00;4;4;
50321;PMS5003;36227;53.366;-1.426;2023-05-10T00:45:25;5;5;
50321;PMS5003;36227;53.366;-1.426;2023-05-10T00:47:51;7;6;
50321;PMS5003;36227;53.366;-1.426;2023-05-10T00:52:41;9;7;
50321;PMS5003;36227;53.366;-1.426;2023-05-10T00:55:07;10;7;
50321;PMS5003;36227;53.366;-1.426;2023-05-10T00:57:32;9;9;
50321;PMS5003;36227;53.366;-1.426;2023-05-10T00:59:57;8;7;
50321;PMS5003;36227;53.366;-1.426;2023-05-10T01:02:23;7;6;
50321;PMS5003;36227;53.366;-1.426;2023-05-10T01:04:48;8;6;
50321;PMS5003;36227;53.366;-1.426;2023-05-10T01:07:13;6;6;
50321;PMS5003;36227;53.366;-1.426;2023-05-10T01:09:39;11;10;
50321;PMS5003;36227;53.366;-1.426;2023-05-10T01:12:05;6;6;
50321;PMS5003;36227;53.366;-1.426;2023-05-10T01:14:30;6;6;
50321;PMS5003;36227;53.366;-1.426;2023-05-10T01:16:55;7;5;
50321;PMS5003;36227;53.366;-1.426;2023-05-10T01:19:22;6;4;
50321;PMS5003;36227;53.366;-1.426;2023-05-10T01:21:48;8;5;
50321;PMS5003;36227;53.366;-1.426;2023-05-10T01:26:40;7;5;
50321;PMS5003;36227;53.366;-1.426;2023-05-10T01:31:37;6;6;
50321;PMS5003;36227;53.366;-1.426;2023-05-10T01:33:55;5;4;
50321;PMS5003;36227;53.366;-1.426;2023-05-10T01:36:20;7;6;
50321;PMS5003;36227;53.366;-1.426;2023-05-10T01:38:46;6;6;
50321;PMS5003;36227;53.366;-1.426;2023-05-10T01:41:12;4;4;
50321;PMS5003;36227;53.366;-1.426;2023-05-10T01:43:36;5;5;
50321;PMS5003;36227;53.366;-1.426;2023-05-10T01:46:01;7;5;
50321;PMS5003;36227;53.366;-1.426;2023-05-10T01:48:24;3;3;
50321;PMS5003;36227;53.366;-1.426;2023-05-10T01:50:50;6;5;
50321;PMS5003;36227;53.366;-1.426;2023-05-10T01:53:17;6;6;
50321;PMS5003;36227;53.366;-1.426;2023-05-10T01:55:42;5;5;
50321;PMS5003;36227;53.366;-1.426;2023-05-10T01:58:06;6;6;
50321;PMS5003;36227;53.366;-1.426;2023-05-10T02:00:31;4;4;
50321;PMS5003;36227;53.366;-1.426;2023-05-10T02:02:57;8;6;
50321;PMS5003;36227;53.366;-1.426;2023-05-10T02:05:22;6;5;
50321;PMS5003;36227;53.366;-1.426;2023-05-10T02:07:47;5;5;
50321;PMS5003;36227;53.366;-1.426;2023-05-10T02:10:13;8;8;
50321;PMS5003;36227;53.366;-1.426;2023-05-10T02:12:39;6;6;
50321;PMS5003;36227;53.366;-1.426;2023-05-10T02:15:04;6;6;
50321;PMS5003;36227;53.366;-1.426;2023-05-10T02:17:28;7;7;
50321;PMS5003;36227;53.366;-1.426;2023-05-10T02:19:53;6;6;
50321;PMS5003;36227;53.366;-1.426;2023-05-10T02:22:19;7;6;
50321;PMS5003;36227;53.366;-1.426;2023-05-10T02:24:44;8;8;
50321;PMS5003;36227;53.366;-1.426;2023-05-10T02:27:10;5;5;
50321;PMS5003;36227;53.366;-1.426;2023-05-10T02:29:35;7;7;
50321;PMS5003;36227;53.366;-1.426;2023-05-10T02:32:01;8;8;
50321;PMS5003;36227;53.366;-1.426;2023-05-10T02:34:26;11;8;
50321;PMS5003;36227;53.366;-1.426;2023-05-10T02:36:52;9;8;
50321;PMS5003;36227;53.366;-1.426;2023-05-10T02:39:17;8;7;
50321;PMS5003;36227;53.366;-1.426;2023-05-10T02:41:42;7;7;
50321;PMS5003;36227;53.366;-1.426;2023-05-10T02:44:08;7;7;
50321;PMS5003;36227;53.366;-1.426;2023-05-10T02:46:33;10;8;
50321;PMS5003;36227;53.366;-1.426;2023-05-10T02:48:59;9;9;
50321;PMS5003;36227;53.366;-1.426;2023-05-10T02:51:25;10;8;
50321;PMS5003;36227;53.366;-1.426;2023-05-10T02:53:50;11;10;
50321;PMS5003;36227;53.366;-1.426;2023-05-10T02:56:19;10;10;
50321;PMS5003;36227;53.366;-1.426;2023-05-10T02:58:40;8;8;
50321;PMS5003;36227;53.366;-1.426;2023-05-10T03:01:06;8;8;
50321;PMS5003;36227;53.366;-1.426;2023-05-10T03:03:32;11;11;
50321;PMS5003;36227;53.366;-1.426;2023-05-10T03:05:57;8;8;
50321;PMS5003;36227;53.366;-1.426;2023-05-10T03:08:22;9;9;
50321;PMS5003;36227;53.366;-1.426;2023-05-10T03:10:55;11;8;
50321;PMS5003;36227;53.366;-1.426;2023-05-10T03:13:18;8;8;
50321;PMS5003;36227;53.366;-1.426;2023-05-10T03:15:42;11;10;
50321;PMS5003;36227;53.366;-1.426;2023-05-10T03:18:04;6;6;
50321;PMS5003;36227;53.366;-1.426;2023-05-10T03:20:30;9;9;
50321;PMS5003;36227;53.366;-1.426;2023-05-10T03:22:55;9;9;
50321;PMS5003;36227;53.366;-1.426;2023-05-10T03:25:20;10;9;
50321;PMS5003;36227;53.366;-1.426;2023-05-10T03:27:45;10;10;
50321;PMS5003;36227;53.366;-1.426;2023-05-10T03:30:11;8;8;
50321;PMS5003;36227;53.366;-1.426;2023-05-10T03:32:35;7;7;
50321;PMS5003;36227;53.366;-1.426;2023-05-10T03:35:01;9;9;
50321;PMS5003;36227;53.366;-1.426;2023-05-10T03:37:26;9;5;
50321;PMS5003;36227;53.366;-1.426;2023-05-10T03:39:51;9;7;
50321;PMS5003;36227;53.366;-1.426;2023-05-10T03:42:17;10;10;
50321;PMS5003;36227;53.366;-1.426;2023-05-10T03:44:42;12;12;
50321;PMS5003;36227;53.366;-1.426;2023-05-10T03:47:07;10;10;
50321;PMS5003;36227;53.366;-1.426;2023-05-10T03:49:32;11;9;
50321;PMS5003;36227;53.366;-1.426;2023-05-10T03:51:58;10;9;
50321;PMS5003;36227;53.366;-1.426;2023-05-10T03:54:23;10;9;
50321;PMS5003;36227;53.366;-1.426;2023-05-10T03:56:49;9;8;
50321;PMS5003;36227;53.366;-1.426;2023-05-10T03:59:14;13;11;
50321;PMS5003;36227;53.366;-1.426;2023-05-10T04:01:40;9;9;
50321;PMS5003;36227;53.366;-1.426;2023-05-10T04:04:05;10;10;
50321;PMS5003;36227;53.366;-1.426;2023-05-10T04:06:30;10;10;
50321;PMS5003;36227;53.366;-1.426;2023-05-10T04:08:56;11;9;
50321;PMS5003;36227;53.366;-1.426;2023-05-10T04:11:21;12;10;
50321;PMS5003;36227;53.366;-1.426;2023-05-10T04:13:47;9;9;
50321;PMS5003;36227;53.366;-1.426;2023-05-10T04:16:12;15;12;
50321;PMS5003;36227;53.366;-1.426;2023-05-10T04:18:37;11;9;
50321;PMS5003;36227;53.366;-1.426;2023-05-10T04:21:03;6;6;
50321;PMS5003;36227;53.366;-1.426;2023-05-10T04:23:28;14;11;
50321;PMS5003;36227;53.366;-1.426;2023-05-10T04:28:18;15;10;
50321;PMS5003;36227;53.366;-1.426;2023-05-10T04:30:44;9;9;
50321;PMS5003;36227;53.366;-1.426;2023-05-10T04:35:36;11;11;
50321;PMS5003;36227;53.366;-1.426;2023-05-10T04:38:01;11;11;
50321;PMS5003;36227;53.366;-1.426;2023-05-10T04:40:26;15;11;
50321;PMS5003;36227;53.366;-1.426;2023-05-10T04:42:51;13;13;
50321;PMS5003;36227;53.366;-1.426;2023-05-10T04:45:17;16;12;
50321;PMS5003;36227;53.366;-1.426;2023-05-10T04:47:42;12;11;
50321;PMS5003;36227;53.366;-1.426;2023-05-10T04:50:08;11;10;
50321;PMS5003;36227;53.366;-1.426;2023-05-10T04:52:34;15;11;
50321;PMS5003;36227;53.366;-1.426;2023-05-10T04:54:59;18;17;
50321;PMS5003;36227;53.366;-1.426;2023-05-10T04:57:25;13;11;
50321;PMS5003;36227;53.366;-1.426;2023-05-10T04:59:50;13;12;
50321;PMS5003;36227;53.366;-1.426;2023-05-10T05:02:15;10;9;
50321;PMS5003;36227;53.366;-1.426;2023-05-10T05:04:41;15;14;
50321;PMS5003;36227;53.366;-1.426;2023-05-10T05:07:07;11;10;
50321;PMS5003;36227;53.366;-1.426;2023-05-10T05:09:31;17;13;
50321;PMS5003;36227;53.366;-1.426;2023-05-10T05:11:57;10;9;
50321;PMS5003;36227;53.366;-1.426;2023-05-10T05:14:23;15;13;
50321;PMS5003;36227;53.366;-1.426;2023-05-10T05:16:48;16;15;
50321;PMS5003;36227;53.366;-1.426;2023-05-10T05:19:14;11;11;
50321;PMS5003;36227;53.366;-1.426;2023-05-10T05:21:39;10;10;
50321;PMS5003;36227;53.366;-1.426;2023-05-10T05:24:05;11;10;
50321;PMS5003;36227;53.366;-1.426;2023-05-10T05:26:30;11;8;
50321;PMS5003;36227;53.366;-1.426;2023-05-10T05:28:54;12;11;
50321;PMS5003;36227;53.366;-1.426;2023-05-10T05:31:20;10;10;
50321;PMS5003;36227;53.366;-1.426;2023-05-10T05:33:45;13;12;
50321;PMS5003;36227;53.366;-1.426;2023-05-10T05:36:10;14;11;
50321;PMS5003;36227;53.366;-1.426;2023-05-10T05:38:36;15;13;
50321;PMS5003;36227;53.366;-1.426;2023-05-10T05:41:02;11;10;
50321;PMS5003;36227;53.366;-1.426;2023-05-10T05:43:27;9;9;
50321;PMS5003;36227;53.366;-1.426;2023-05-10T05:45:52;13;13;
50321;PMS5003;36227;53.366;-1.426;2023-05-10T05:48:18;13;12;
50321;PMS5003;36227;53.366;-1.426;2023-05-10T05:50:43;13;13;
50321;PMS5003;36227;53.366;-1.426;2023-05-10T05:53:08;14;14;
50321;PMS5003;36227;53.366;-1.426;2023-05-10T05:55:34;13;12;
50321;PMS5003;36227;53.366;-1.426;2023-05-10T05:57:59;11;9;
50321;PMS5003;36227;53.366;-1.426;2023-05-10T06:00:25;13;13;
50321;PMS5003;36227;53.366;-1.426;2023-05-10T06:02:50;13;11;
50321;PMS5003;36227;53.366;-1.426;2023-05-10T06:05:15;10;7;
50321;PMS5003;36227;53.366;-1.426;2023-05-10T06:07:40;13;11;
50321;PMS5003;36227;53.366;-1.426;2023-05-10T06:10:06;12;11;
50321;PMS5003;36227;53.366;-1.426;2023-05-10T06:12:31;10;9;
50321;PMS5003;36227;53.366;-1.426;2023-05-10T06:14:56;12;9;
50321;PMS5003;36227;53.366;-1.426;2023-05-10T06:17:21;10;10;
50321;PMS5003;36227;53.366;-1.426;2023-05-10T06:19:47;9;9;
50321;PMS5003;36227;53.366;-1.426;2023-05-10T06:22:12;10;10;
50321;PMS5003;36227;53.366;-1.426;2023-05-10T06:24:38;14;11;
50321;PMS5003;36227;53.366;-1.426;2023-05-10T06:27:03;12;11;
50321;PMS5003;36227;53.366;-1.426;2023-05-10T06:29:29;16;14;
50321;PMS5003;36227;53.366;-1.426;2023-05-10T06:31:54;11;9;
50321;PMS5003;36227;53.366;-1.426;2023-05-10T06:34:19;13;12;
50321;PMS5003;36227;53.366;-1.426;2023-05-10T06:36:45;13;13;
50321;PMS5003;36227;53.366;-1.426;2023-05-10T06:39:10;10;10;
50321;PMS5003;36227;53.366;-1.426;2023-05-10T06:41:36;15;14;
50321;PMS5003;36227;53.366;-1.426;2023-05-10T06:44:01;12;11;
50321;PMS5003;36227;53.366;-1.426;2023-05-10T06:46:27;10;10;
50321;PMS5003;36227;53.366;-1.426;2023-05-10T06:48:53;11;11;
50321;PMS5003;36227;53.366;-1.426;2023-05-10T06:51:18;10;10;
50321;PMS5003;36227;53.366;-1.426;2023-05-10T06:53:43;9;9;
50321;PMS5003;36227;53.366;-1.426;2023-05-10T06:56:08;9;8;
50321;PMS5003;36227;53.366;-1.426;2023-05-10T06:58:34;9;9;
50321;PMS5003;36227;53.366;-1.426;2023-05-10T07:01:02;8;8;
50321;PMS5003;36227;53.366;-1.426;2023-05-10T07:03:24;10;10;
50321;PMS5003;36227;53.366;-1.426;2023-05-10T07:05:49;10;10;
50321;PMS5003;36227;53.366;-1.426;2023-05-10T07:08:15;10;10;
50321;PMS5003;36227;53.366;-1.426;2023-05-10T07:10:40;10;10;
50321;PMS5003;36227;53.366;-1.426;2023-05-10T07:13:06;11;11;
50321;PMS5003;36227;53.366;-1.426;2023-05-10T07:15:31;12;11;
50321;PMS5003;36227;53.366;-1.426;2023-05-10T07:17:57;8;7;
50321;PMS5003;36227;53.366;-1.426;2023-05-10T07:20:22;6;5;
50321;PMS5003;36227;53.366;-1.426;2023-05-10T07:22:47;6;6;
50321;PMS5003;36227;53.366;-1.426;2023-05-10T07:25:12;10;8;
50321;PMS5003;36227;53.366;-1.426;2023-05-10T07:27:37;7;7;
50321;PMS5003;36227;53.366;-1.426;2023-05-10T07:30:02;9;7;
50321;PMS5003;36227;53.366;-1.426;2023-05-10T07:32:27;7;7;
50321;PMS5003;36227;53.366;-1.426;2023-05-10T07:34:52;7;6;
50321;PMS5003;36227;53.366;-1.426;2023-05-10T07:37:18;7;7;
50321;PMS5003;36227;53.366;-1.426;2023-05-10T07:39:43;9;8;
50321;PMS5003;36227;53.366;-1.426;2023-05-10T07:42:08;6;5;
50321;PMS5003;36227;53.366;-1.426;2023-05-10T07:44:33;10;10;
50321;PMS5003;36227;53.366;-1.426;2023-05-10T07:46:58;10;9;
50321;PMS5003;36227;53.366;-1.426;2023-05-10T07:49:23;9;9;
50321;PMS5003;36227;53.366;-1.426;2023-05-10T07:51:48;8;7;
50321;PMS5003;36227;53.366;-1.426;2023-05-10T07:54:13;7;7;
50321;PMS5003;36227;53.366;-1.426;2023-05-10T07:56:38;8;7;
50321;PMS5003;36227;53.366;-1.426;2023-05-10T07:59:04;9;9;
50321;PMS5003;36227;53.366;-1.426;2023-05-10T08:01:30;12;9;
50321;PMS5003;36227;53.366;-1.426;2023-05-10T08:03:55;5;5;
50321;PMS5003;36227;53.366;-1.426;2023-05-10T08:06:20;6;6;
50321;PMS5003;36227;53.366;-1.426;2023-05-10T08:08:45;5;5;
50321;PMS5003;36227;53.366;-1.426;2023-05-10T08:11:11;5;5;
50321;PMS5003;36227;53.366;-1.426;2023-05-10T08:13:36;7;6;
50321;PMS5003;36227;53.366;-1.426;2023-05-10T08:16:01;7;7;
50321;PMS5003;36227;53.366;-1.426;2023-05-10T08:18:27;9;8;
50321;PMS5003;36227;53.366;-1.426;2023-05-10T08:20:52;8;8;
50321;PMS5003;36227;53.366;-1.426;2023-05-10T08:23:17;9;9;
50321;PMS5003;36227;53.366;-1.426;2023-05-10T08:25:43;10;8;
50321;PMS5003;36227;53.366;-1.426;2023-05-10T08:28:07;9;9;
50321;PMS5003;36227;53.366;-1.426;2023-05-10T08:30:33;10;10;
50321;PMS5003;36227;53.366;-1.426;2023-05-10T08:32:58;14;12;
50321;PMS5003;36227;53.366;-1.426;2023-05-10T08:35:24;12;12;
50321;PMS5003;36227;53.366;-1.426;2023-05-10T08:37:50;8;8;
50321;PMS5003;36227;53.366;-1.426;2023-05-10T08:40:15;8;7;
50321;PMS5003;36227;53.366;-1.426;2023-05-10T08:42:41;8;8;
50321;PMS5003;36227;53.366;-1.426;2023-05-10T08:45:06;9;9;
50321;PMS5003;36227;53.366;-1.426;2023-05-10T08:47:31;12;12;
50321;PMS5003;36227;53.366;-1.426;2023-05-10T08:49:56;9;9;
50321;PMS5003;36227;53.366;-1.426;2023-05-10T08:52:21;8;8;
50321;PMS5003;36227;53.366;-1.426;2023-05-10T08:54:46;12;12;
50321;PMS5003;36227;53.366;-1.426;2023-05-10T08:57:11;13;10;
50321;PMS5003;36227;53.366;-1.426;2023-05-10T08:59:36;9;9;
50321;PMS5003;36227;53.366;-1.426;2023-05-10T09:02:02;9;9;
50321;PMS5003;36227;53.366;-1.426;2023-05-10T09:04:28;7;7;
50321;PMS5003;36227;53.366;-1.426;2023-05-10T09:06:53;9;8;
50321;PMS5003;36227;53.366;-1.426;2023-05-10T09:09:18;7;6;
50321;PMS5003;36227;53.366;-1.426;2023-05-10T09:11:43;7;7;
50321;PMS5003;36227;53.366;-1.426;2023-05-10T09:14:08;6;6;
50321;PMS5003;36227;53.366;-1.426;2023-05-10T09:16:34;12;7;
50321;PMS5003;36227;53.366;-1.426;2023-05-10T09:18:59;7;6;
50321;PMS5003;36227;53.366;-1.426;2023-05-10T09:21:24;8;8;
50321;PMS5003;36227;53.366;-1.426;2023-05-10T09:23:49;7;6;
50321;PMS5003;36227;53.366;-1.426;2023-05-10T09:26:15;3;3;
50321;PMS5003;36227;53.366;-1.426;2023-05-10T09:31:05;4;4;
50321;PMS5003;36227;53.366;-1.426;2023-05-10T09:33:30;8;8;
50321;PMS5003;36227;53.366;-1.426;2023-05-10T09:35:55;5;3;
50321;PMS5003;36227;53.366;-1.426;2023-05-10T09:38:20;5;4;
50321;PMS5003;36227;53.366;-1.426;2023-05-10T09:40:50;7;6;
50321;PMS5003;36227;53.366;-1.426;2023-05-10T09:43:11;4;4;
50321;PMS5003;36227;53.366;-1.426;2023-05-10T09:45:36;7;7;
50321;PMS5003;36227;53.366;-1.426;2023-05-10T09:48:01;8;8;
50321;PMS5003;36227;53.366;-1.426;2023-05-10T09:50:26;8;8;
50321;PMS5003;36227;53.366;-1.426;2023-05-10T09:52:51;4;4;
50321;PMS5003;36227;53.366;-1.426;2023-05-10T09:55:17;6;6;
50321;PMS5003;36227;53.366;-1.426;2023-05-10T09:57:41;8;8;
50321;PMS5003;36227;53.366;-1.426;2023-05-10T10:00:07;6;6;
50321;PMS5003;36227;53.366;-1.426;2023-05-10T10:02:31;8;8;
50321;PMS5003;36227;53.366;-1.426;2023-05-10T10:04:58;6;5;
50321;PMS5003;36227;53.366;-1.426;2023-05-10T10:07:23;8;7;
50321;PMS5003;36227;53.366;-1.426;2023-05-10T10:09:47;6;6;
50321;PMS5003;36227;53.366;-1.426;2023-05-10T10:12:12;5;5;
50321;PMS5003;36227;53.366;-1.426;2023-05-10T10:14:38;6;6;
50321;PMS5003;36227;53.366;-1.426;2023-05-10T10:17:03;5;4;
50321;PMS5003;36227;53.366;-1.426;2023-05-10T10:19:28;6;6;
50321;PMS5003;36227;53.366;-1.426;2023-05-10T10:21:53;6;6;
50321;PMS5003;36227;53.366;-1.426;2023-05-10T10:24:18;7;6;
50321;PMS5003;36227;53.366;-1.426;2023-05-10T10:26:44;6;6;
50321;PMS5003;36227;53.366;-1.426;2023-05-10T10:29:12;5;5;
50321;PMS5003;36227;53.366;-1.426;2023-05-10T10:31:36;4;4;
50321;PMS5003;36227;53.366;-1.426;2023-05-10T10:34:00;5;4;
50321;PMS5003;36227;53.366;-1.426;2023-05-10T10:36:24;4;4;
50321;PMS5003;36227;53.366;-1.426;2023-05-10T10:38:56;7;7;
50321;PMS5003;36227;53.366;-1.426;2023-05-10T10:43:39;4;4;
50321;PMS5003;36227;53.366;-1.426;2023-05-10T10:46:10;5;3;
50321;PMS5003;36227;53.366;-1.426;2023-05-10T10:48:30;2;2;
50321;PMS5003;36227;53.366;-1.426;2023-05-10T10:50:56;4;4;
50321;PMS5003;36227;53.366;-1.426;2023-05-10T10:53:20;3;3;
50321;PMS5003;36227;53.366;-1.426;2023-05-10T10:55:46;3;3;
50321;PMS5003;36227;53.366;-1.426;2023-05-10T10:58:12;3;3;
50321;PMS5003;36227;53.366;-1.426;2023-05-10T11:00:36;5;5;
50321;PMS5003;36227;53.366;-1.426;2023-05-10T11:03:03;3;3;
50321;PMS5003;36227;53.366;-1.426;2023-05-10T11:07:52;5;5;
50321;PMS5003;36227;53.366;-1.426;2023-05-10T11:10:19;5;5;
50321;PMS5003;36227;53.366;-1.426;2023-05-10T11:15:08;6;5;
50321;PMS5003;36227;53.366;-1.426;2023-05-10T11:17:32;5;5;
50321;PMS5003;36227;53.366;-1.426;2023-05-10T11:20:06;5;5;
50321;PMS5003;36227;53.366;-1.426;2023-05-10T11:22:22;4;4;
50321;PMS5003;36227;53.366;-1.426;2023-05-10T11:27:14;4;4;
50321;PMS5003;36227;53.366;-1.426;2023-05-10T11:29:39;2;2;
50321;PMS5003;36227;53.366;-1.426;2023-05-10T11:32:04;5;4;
50321;PMS5003;36227;53.366;-1.426;2023-05-10T11:34:29;5;5;
50321;PMS5003;36227;53.366;-1.426;2023-05-10T11:36:54;3;3;
50321;PMS5003;36227;53.366;-1.426;2023-05-10T11:39:19;2;2;
50321;PMS5003;36227;53.366;-1.426;2023-05-10T11:41:46;3;3;
50321;PMS5003;36227;53.366;-1.426;2023-05-10T11:44:10;5;5;
50321;PMS5003;36227;53.366;-1.426;2023-05-10T11:46:36;5;5;
50321;PMS5003;36227;53.366;-1.426;2023-05-10T11:49:01;6;4;
50321;PMS5003;36227;53.366;-1.426;2023-05-10T11:51:26;4;4;
50321;PMS5003;36227;53.366;-1.426;2023-05-10T11:53:52;4;3;
50321;PMS5003;36227;53.366;-1.426;2023-05-10T11:56:16;2;2;
50321;PMS5003;36227;53.366;-1.426;2023-05-10T11:58:42;2;2;
50321;PMS5003;36227;53.366;-1.426;2023-05-10T12:01:07;5;5;
50321;PMS5003;36227;53.366;-1.426;2023-05-10T12:03:32;3;3;
50321;PMS5003;36227;53.366;-1.426;2023-05-10T12:05:57;3;3;
50321;PMS5003;36227;53.366;-1.426;2023-05-10T12:08:23;2;2;
50321;PMS5003;36227;53.366;-1.426;2023-05-10T12:10:48;6;5;
50321;PMS5003;36227;53.366;-1.426;2023-05-10T12:13:13;4;4;
50321;PMS5003;36227;53.366;-1.426;2023-05-10T12:15:38;9;7;
50321;PMS5003;36227;53.366;-1.426;2023-05-10T12:18:31;5;5;
50321;PMS5003;36227;53.366;-1.426;2023-05-10T12:20:28;5;4;
50321;PMS5003;36227;53.366;-1.426;2023-05-10T12:22:53;4;4;
50321;PMS5003;36227;53.366;-1.426;2023-05-10T12:27:48;6;6;
50321;PMS5003;36227;53.366;-1.426;2023-05-10T12:30:09;2;2;
50321;PMS5003;36227;53.366;-1.426;2023-05-10T12:32:38;8;5;
50321;PMS5003;36227;53.366;-1.426;2023-05-10T12:34:59;4;3;
50321;PMS5003;36227;53.366;-1.426;2023-05-10T12:37:26;4;4;
50321;PMS5003;36227;53.366;-1.426;2023-05-10T12:39:49;3;3;
50321;PMS5003;36227;53.366;-1.426;2023-05-10T12:42:14;1;1;
50321;PMS5003;36227;53.366;-1.426;2023-05-10T12:44:40;1;1;
50321;PMS5003;36227;53.366;-1.426;2023-05-10T12:47:05;1;1;
50321;PMS5003;36227;53.366;-1.426;2023-05-10T12:49:30;2;2;
50321;PMS5003;36227;53.366;-1.426;2023-05-10T12:51:55;2;2;
50321;PMS5003;36227;53.366;-1.426;2023-05-10T12:54:20;1;1;
50321;PMS5003;36227;53.366;-1.426;2023-05-10T12:56:46;2;2;
50321;PMS5003;36227;53.366;-1.426;2023-05-10T12:59:10;1;1;
50321;PMS5003;36227;53.366;-1.426;2023-05-10T13:01:36;3;2;
50321;PMS5003;36227;53.366;-1.426;2023-05-10T13:04:01;2;2;
50321;PMS5003;36227;53.366;-1.426;2023-05-10T13:06:26;2;2;
50321;PMS5003;36227;53.366;-1.426;2023-05-10T13:08:51;1;1;
50321;PMS5003;36227;53.366;-1.426;2023-05-10T13:11:16;3;3;
50321;PMS5003;36227;53.366;-1.426;2023-05-10T13:13:41;5;5;
50321;PMS5003;36227;53.366;-1.426;2023-05-10T13:16:06;3;3;
50321;PMS5003;36227;53.366;-1.426;2023-05-10T13:18:32;2;2;
50321;PMS5003;36227;53.366;-1.426;2023-05-10T13:20:57;3;3;
50321;PMS5003;36227;53.366;-1.426;2023-05-10T13:23:22;2;2;
50321;PMS5003;36227;53.366;-1.426;2023-05-10T13:25:47;3;3;
50321;PMS5003;36227;53.366;-1.426;2023-05-10T13:28:12;3;3;
50321;PMS5003;36227;53.366;-1.426;2023-05-10T13:30:37;3;3;
50321;PMS5003;36227;53.366;-1.426;2023-05-10T13:33:02;5;3;
50321;PMS5003;36227;53.366;-1.426;2023-05-10T13:35:27;3;3;
50321;PMS5003;36227;53.366;-1.426;2023-05-10T13:47:42;1;1;
50321;PMS5003;36227;53.366;-1.426;2023-05-10T13:49:59;2;2;
50321;PMS5003;36227;53.366;-1.426;2023-05-10T13:52:23;4;2;
50321;PMS5003;36227;53.366;-1.426;2023-05-10T13:54:48;3;3;
50321;PMS5003;36227;53.366;-1.426;2023-05-10T13:57:13;2;2;
50321;PMS5003;36227;53.366;-1.426;2023-05-10T13:59:39;3;3;
50321;PMS5003;36227;53.366;-1.426;2023-05-10T14:02:04;1;1;
50321;PMS5003;36227;53.366;-1.426;2023-05-10T14:04:29;1;1;
50321;PMS5003;36227;53.366;-1.426;2023-05-10T14:06:54;3;2;
50321;PMS5003;36227;53.366;-1.426;2023-05-10T14:09:19;2;2;
50321;PMS5003;36227;53.366;-1.426;2023-05-10T14:11:44;1;1;
50321;PMS5003;36227;53.366;-1.426;2023-05-10T14:14:09;5;3;
50321;PMS5003;36227;53.366;-1.426;2023-05-10T14:16:35;1;1;
50321;PMS5003;36227;53.366;-1.426;2023-05-10T14:19:00;7;6;
50321;PMS5003;36227;53.366;-1.426;2023-05-10T14:21:25;2;2;
50321;PMS5003;36227;53.366;-1.426;2023-05-10T14:23:50;1;1;
50321;PMS5003;36227;53.366;-1.426;2023-05-10T14:26:15;3;3;
50321;PMS5003;36227;53.366;-1.426;2023-05-10T14:28:40;7;7;
50321;PMS5003;36227;53.366;-1.426;2023-05-10T14:31:06;2;2;
50321;PMS5003;36227;53.366;-1.426;2023-05-10T14:33:31;1;1;
50321;PMS5003;36227;53.366;-1.426;2023-05-10T14:35:56;2;2;
50321;PMS5003;36227;53.366;-1.426;2023-05-10T14:38:22;3;3;
50321;PMS5003;36227;53.366;-1.426;2023-05-10T14:40:47;4;4;
50321;PMS5003;36227;53.366;-1.426;2023-05-10T14:43:12;2;2;
50321;PMS5003;36227;53.366;-1.426;2023-05-10T14:45:37;2;2;
50321;PMS5003;36227;53.366;-1.426;2023-05-10T14:48:03;3;2;
50321;PMS5003;36227;53.366;-1.426;2023-05-10T14:50:28;1;1;
50321;PMS5003;36227;53.366;-1.426;2023-05-10T14:52:53;1;1;
50321;PMS5003;36227;53.366;-1.426;2023-05-10T14:55:18;2;2;
50321;PMS5003;36227;53.366;-1.426;2023-05-10T14:57:43;1;1;
50321;PMS5003;36227;53.366;-1.426;2023-05-10T15:00:08;3;2;
50321;PMS5003;36227;53.366;-1.426;2023-05-10T15:02:33;2;2;
50321;PMS5003;36227;53.366;-1.426;2023-05-10T15:04:58;2;2;
50321;PMS5003;36227;53.366;-1.426;2023-05-10T15:07:24;1;1;
50321;PMS5003;36227;53.366;-1.426;2023-05-10T15:09:49;2;2;
50321;PMS5003;36227;53.366;-1.426;2023-05-10T15:12:14;2;2;
50321;PMS5003;36227;53.366;-1.426;2023-05-10T15:14:39;1;1;
50321;PMS5003;36227;53.366;-1.426;2023-05-10T15:17:05;2;2;
50321;PMS5003;36227;53.366;-1.426;2023-05-10T15:19:29;3;3;
50321;PMS5003;36227;53.366;-1.426;2023-05-10T15:21:54;1;1;
50321;PMS5003;36227;53.366;-1.426;2023-05-10T15:24:19;2;2;
50321;PMS5003;36227;53.366;-1.426;2023-05-10T15:26:44;2;2;
50321;PMS5003;36227;53.366;-1.426;2023-05-10T15:29:09;3;2;
50321;PMS5003;36227;53.366;-1.426;2023-05-10T15:31:35;5;5;
50321;PMS5003;36227;53.366;-1.426;2023-05-10T15:34:00;1;1;
50321;PMS5003;36227;53.366;-1.426;2023-05-10T15:36:25;1;1;
50321;PMS5003;36227;53.366;-1.426;2023-05-10T15:38:50;1;1;
50321;PMS5003;36227;53.366;-1.426;2023-05-10T15:41:15;3;3;
50321;PMS5003;36227;53.366;-1.426;2023-05-10T15:43:40;1;1;
50321;PMS5003;36227;53.366;-1.426;2023-05-10T15:46:05;2;2;
50321;PMS5003;36227;53.366;-1.426;2023-05-10T15:48:30;2;2;
50321;PMS5003;36227;53.366;-1.426;2023-05-10T15:50:56;2;2;
50321;PMS5003;36227;53.366;-1.426;2023-05-10T15:53:21;3;3;
50321;PMS5003;36227;53.366;-1.426;2023-05-10T15:55:46;3;3;
50321;PMS5003;36227;53.366;-1.426;2023-05-10T15:58:11;5;5;
50321;PMS5003;36227;53.366;-1.426;2023-05-10T16:00:36;3;3;
50321;PMS5003;36227;53.366;-1.426;2023-05-10T16:03:01;3;3;
50321;PMS5003;36227;53.366;-1.426;2023-05-10T16:05:26;3;3;
50321;PMS5003;36227;53.366;-1.426;2023-05-10T16:07:51;2;2;
50321;PMS5003;36227;53.366;-1.426;2023-05-10T16:10:17;5;4;
50321;PMS5003;36227;53.366;-1.426;2023-05-10T16:12:42;3;3;
50321;PMS5003;36227;53.366;-1.426;2023-05-10T16:15:07;4;4;
50321;PMS5003;36227;53.366;-1.426;2023-05-10T16:17:32;3;3;
50321;PMS5003;36227;53.366;-1.426;2023-05-10T16:19:57;6;6;
50321;PMS5003;36227;53.366;-1.426;2023-05-10T16:22:22;5;4;
50321;PMS5003;36227;53.366;-1.426;2023-05-10T16:24:48;3;3;
50321;PMS5003;36227;53.366;-1.426;2023-05-10T16:27:12;2;2;
50321;PMS5003;36227;53.366;-1.426;2023-05-10T16:29:37;4;4;
50321;PMS5003;36227;53.366;-1.426;2023-05-10T16:32:03;2;2;
50321;PMS5003;36227;53.366;-1.426;2023-05-10T16:34:28;3;3;
50321;PMS5003;36227;53.366;-1.426;2023-05-10T16:36:53;4;4;
50321;PMS5003;36227;53.366;-1.426;2023-05-10T16:39:18;4;4;
50321;PMS5003;36227;53.366;-1.426;2023-05-10T16:41:43;4;4;
50321;PMS5003;36227;53.366;-1.426;2023-05-10T16:44:08;4;4;
50321;PMS5003;36227;53.366;-1.426;2023-05-10T16:46:33;4;4;
50321;PMS5003;36227;53.366;-1.426;2023-05-10T16:48:58;1;1;